createdAt,value
2018-02-19T00:00:41.310Z,1018.35
2018-02-19T00:01:41.269Z,1018.33
2018-02-19T00:02:41.256Z,1018.32
2018-02-19T00:03:41.212Z,1018.36
2018-02-19T00:04:41.185Z,1018.34
2018-02-19T00:05:41.163Z,1018.31
2018-02-19T00:06:41.130Z,1018.30
2018-02-19T00:07:41.106Z,1018.26
2018-02-19T00:08:41.090Z,1018.25
2018-02-19T00:09:41.075Z,1018.29
2018-02-19T00:10:41.025Z,1018.26
2018-02-19T00:11:41.020Z,1018.26
2018-02-19T00:12:40.969Z,1018.26
2018-02-19T00:13:40.944Z,1018.27
2018-02-19T00:14:40.927Z,1018.21
2018-02-19T00:15:40.883Z,1018.24
2018-02-19T00:16:40.861Z,1018.21
2018-02-19T00:17:40.859Z,1018.24
2018-02-19T00:18:40.804Z,1018.21
2018-02-19T00:19:40.779Z,1018.19
2018-02-19T00:20:40.752Z,1018.23
2018-02-19T00:21:40.722Z,1018.23
2018-02-19T00:22:40.697Z,1018.19
2018-02-19T00:23:40.670Z,1018.22
2018-02-19T00:24:40.643Z,1018.21
2018-02-19T00:25:40.616Z,1018.20
2018-02-19T00:26:40.588Z,1018.17
2018-02-19T00:27:40.563Z,1018.16
2018-02-19T00:28:40.532Z,1018.14
2018-02-19T00:29:40.506Z,1018.11
2018-02-19T00:30:40.480Z,1018.13
2018-02-19T00:31:40.458Z,1018.11
2018-02-19T00:32:40.452Z,1018.16
2018-02-19T00:33:40.393Z,1018.11
2018-02-19T00:34:40.371Z,1018.08
2018-02-19T00:35:40.343Z,1018.06
2018-02-19T00:36:40.311Z,1018.06
2018-02-19T00:37:40.289Z,1018.07
2018-02-19T00:38:40.263Z,1018.01
2018-02-19T00:39:40.230Z,1018.04
2018-02-19T00:40:40.209Z,1018.03
2018-02-19T00:41:40.180Z,1018.04
2018-02-19T00:42:40.152Z,1018.02
2018-02-19T00:43:40.124Z,1018.01
2018-02-19T00:44:40.098Z,1017.98
2018-02-19T00:45:40.078Z,1017.96
2018-02-19T00:46:40.041Z,1017.95
2018-02-19T00:47:40.014Z,1017.99
2018-02-19T00:48:39.997Z,1017.93
2018-02-19T00:49:39.963Z,1017.86
2018-02-19T00:50:39.937Z,1017.91
2018-02-19T00:51:39.902Z,1017.92
2018-02-19T00:52:39.877Z,1017.86
2018-02-19T00:53:39.851Z,1017.88
2018-02-19T00:54:39.830Z,1017.89
2018-02-19T00:55:39.797Z,1017.84
2018-02-19T00:56:39.767Z,1017.84
2018-02-19T00:57:39.747Z,1017.85
2018-02-19T00:58:39.713Z,1017.86
2018-02-19T00:59:39.691Z,1017.82
2018-02-19T01:00:39.665Z,1017.80
2018-02-19T01:01:39.638Z,1017.80
2018-02-19T01:02:39.609Z,1017.78
2018-02-19T01:03:39.581Z,1017.78
2018-02-19T01:04:39.551Z,1017.74
2018-02-19T01:05:39.527Z,1017.76
2018-02-19T01:06:39.500Z,1017.74
2018-02-19T01:07:39.470Z,1017.75
2018-02-19T01:08:39.443Z,1017.75
2018-02-19T01:09:39.423Z,1017.73
2018-02-19T01:10:39.402Z,1017.70
2018-02-19T01:11:39.360Z,1017.74
2018-02-19T01:12:39.342Z,1017.70
2018-02-19T01:13:39.316Z,1017.70
2018-02-19T01:14:39.281Z,1017.70
2018-02-19T01:15:39.253Z,1017.70
2018-02-19T01:16:39.235Z,1017.68
2018-02-19T01:17:39.198Z,1017.68
2018-02-19T01:18:39.199Z,1017.66
2018-02-19T01:19:39.149Z,1017.67
2018-02-19T01:20:39.119Z,1017.66
2018-02-19T01:21:39.106Z,1017.62
2018-02-19T01:22:39.066Z,1017.63
2018-02-19T01:23:39.035Z,1017.65
2018-02-19T01:24:39.015Z,1017.61
2018-02-19T01:25:38.989Z,1017.63
2018-02-19T01:26:38.966Z,1017.60
2018-02-19T01:27:38.927Z,1017.56
2018-02-19T01:28:38.904Z,1017.56
2018-02-19T01:29:38.880Z,1017.53
2018-02-19T01:30:38.847Z,1017.50
2018-02-19T01:31:38.822Z,1017.52
2018-02-19T01:32:38.818Z,1017.47
2018-02-19T01:33:38.766Z,1017.49
2018-02-19T01:34:38.739Z,1017.48
2018-02-19T01:35:38.723Z,1017.46
2018-02-19T01:36:38.686Z,1017.45
2018-02-19T01:37:38.658Z,1017.46
2018-02-19T01:38:38.631Z,1017.44
2018-02-19T01:39:38.608Z,1017.42
2018-02-19T01:40:38.581Z,1017.42
2018-02-19T01:41:38.562Z,1017.41
2018-02-19T01:42:38.523Z,1017.37
2018-02-19T01:43:38.496Z,1017.38
2018-02-19T01:44:38.471Z,1017.36
2018-02-19T01:45:38.444Z,1017.36
2018-02-19T01:46:38.413Z,1017.36
2018-02-19T01:47:38.393Z,1017.29
2018-02-19T01:48:38.359Z,1017.30
2018-02-19T01:49:38.329Z,1017.27
2018-02-19T01:50:38.305Z,1017.25
2018-02-19T01:51:38.278Z,1017.18
2018-02-19T01:52:38.252Z,1017.20
2018-02-19T01:53:38.226Z,1017.22
2018-02-19T01:54:38.199Z,1017.19
2018-02-19T01:55:38.169Z,1017.20
2018-02-19T01:56:38.145Z,1017.21
2018-02-19T01:57:38.115Z,1017.22
2018-02-19T01:58:38.091Z,1017.20
2018-02-19T01:59:38.069Z,1017.16
2018-02-19T02:00:38.033Z,1017.16
2018-02-19T02:01:38.006Z,1017.14
2018-02-19T02:02:37.977Z,1017.16
2018-02-19T02:03:37.960Z,1017.17
2018-02-19T02:04:37.922Z,1017.14
2018-02-19T02:05:37.901Z,1017.15
2018-02-19T02:06:37.875Z,1017.17
2018-02-19T02:07:37.848Z,1017.18
2018-02-19T02:08:37.817Z,1017.17
2018-02-19T02:09:37.788Z,1017.18
2018-02-19T02:10:37.762Z,1017.18
2018-02-19T02:11:37.745Z,1017.19
2018-02-19T02:12:37.707Z,1017.19
2018-02-19T02:13:37.723Z,1017.16
2018-02-19T02:14:37.655Z,1017.17
2018-02-19T02:15:37.628Z,1017.19
2018-02-19T02:16:37.602Z,1017.12
2018-02-19T02:17:37.580Z,1017.15
2018-02-19T02:18:37.555Z,1017.15
2018-02-19T02:19:37.515Z,1017.16
2018-02-19T02:20:37.497Z,1017.14
2018-02-19T02:21:37.466Z,1017.14
2018-02-19T02:22:37.437Z,1017.12
2018-02-19T02:23:37.411Z,1017.09
2018-02-19T02:24:37.387Z,1017.13
2018-02-19T02:25:37.382Z,1017.09
2018-02-19T02:26:37.328Z,1017.09
2018-02-19T02:27:37.298Z,1017.07
2018-02-19T02:28:37.283Z,1017.06
2018-02-19T02:29:37.251Z,1017.01
2018-02-19T02:30:37.218Z,1016.99
2018-02-19T02:31:37.192Z,1016.97
2018-02-19T02:32:37.163Z,1017.00
2018-02-19T02:33:37.140Z,1017.00
2018-02-19T02:34:37.112Z,1016.99
2018-02-19T02:35:37.084Z,1016.98
2018-02-19T02:36:37.057Z,1016.98
2018-02-19T02:37:37.036Z,1016.95
2018-02-19T02:38:37.005Z,1016.94
2018-02-19T02:39:36.982Z,1016.97
2018-02-19T02:40:36.944Z,1016.94
2018-02-19T02:41:36.918Z,1016.96
2018-02-19T02:42:36.897Z,1016.98
2018-02-19T02:43:36.868Z,1016.99
2018-02-19T02:44:36.845Z,1017.00
2018-02-19T02:45:36.817Z,1017.03
2018-02-19T02:46:36.791Z,1017.04
2018-02-19T02:47:36.755Z,1017.00
2018-02-19T02:48:36.731Z,1017.02
2018-02-19T02:49:36.706Z,1017.05
2018-02-19T02:50:36.677Z,1016.99
2018-02-19T02:51:36.647Z,1016.97
2018-02-19T02:52:36.632Z,1016.97
2018-02-19T02:53:36.595Z,1016.97
2018-02-19T02:54:36.575Z,1016.97
2018-02-19T02:55:36.546Z,1016.99
2018-02-19T02:56:36.521Z,1016.96
2018-02-19T02:57:36.489Z,1016.99
2018-02-19T02:58:36.461Z,1017.00
2018-02-19T02:59:36.431Z,1016.99
2018-02-19T03:00:36.408Z,1016.97
2018-02-19T03:01:36.382Z,1016.97
2018-02-19T03:02:36.354Z,1016.98
2018-02-19T03:03:36.325Z,1016.96
2018-02-19T03:04:36.298Z,1016.97
2018-02-19T03:05:36.266Z,1016.97
2018-02-19T03:06:36.243Z,1016.97
2018-02-19T03:07:36.213Z,1017.00
2018-02-19T03:08:36.185Z,1017.00
2018-02-19T03:09:36.162Z,1016.99
2018-02-19T03:10:36.138Z,1017.00
2018-02-19T03:11:36.107Z,1017.00
2018-02-19T03:12:36.078Z,1017.03
2018-02-19T03:13:36.060Z,1017.00
2018-02-19T03:14:36.023Z,1016.97
2018-02-19T03:15:35.998Z,1016.93
2018-02-19T03:16:35.976Z,1016.93
2018-02-19T03:17:35.943Z,1016.90
2018-02-19T03:18:35.922Z,1016.88
2018-02-19T03:19:35.893Z,1016.92
2018-02-19T03:20:35.857Z,1016.89
2018-02-19T03:21:35.840Z,1016.87
2018-02-19T03:22:35.813Z,1016.85
2018-02-19T03:23:35.781Z,1016.86
2018-02-19T03:24:35.754Z,1016.84
2018-02-19T03:25:35.733Z,1016.82
2018-02-19T03:26:35.704Z,1016.82
2018-02-19T03:27:35.671Z,1016.83
2018-02-19T03:28:35.648Z,1016.82
2018-02-19T03:29:35.639Z,1016.87
2018-02-19T03:30:35.595Z,1016.91
2018-02-19T03:31:35.573Z,1016.91
2018-02-19T03:32:35.535Z,1016.89
2018-02-19T03:33:35.518Z,1016.89
2018-02-19T03:34:35.485Z,1016.90
2018-02-19T03:35:35.456Z,1016.87
2018-02-19T03:36:35.428Z,1016.86
2018-02-19T03:37:35.404Z,1016.89
2018-02-19T03:38:35.374Z,1016.83
2018-02-19T03:39:35.349Z,1016.84
2018-02-19T03:40:35.320Z,1016.80
2018-02-19T03:41:35.293Z,1016.84
2018-02-19T03:42:35.265Z,1016.78
2018-02-19T03:43:35.236Z,1016.75
2018-02-19T03:44:35.215Z,1016.73
2018-02-19T03:45:35.185Z,1016.72
2018-02-19T03:46:35.154Z,1016.67
2018-02-19T03:47:35.131Z,1016.63
2018-02-19T03:48:35.104Z,1016.63
2018-02-19T03:49:35.076Z,1016.62
2018-02-19T03:50:35.051Z,1016.64
2018-02-19T03:51:35.028Z,1016.63
2018-02-19T03:52:34.996Z,1016.63
2018-02-19T03:53:34.969Z,1016.63
2018-02-19T03:54:34.947Z,1016.59
2018-02-19T03:55:34.908Z,1016.55
2018-02-19T03:56:34.884Z,1016.55
2018-02-19T03:57:34.869Z,1016.52
2018-02-19T03:58:34.828Z,1016.53
2018-02-19T03:59:34.813Z,1016.50
2018-02-19T04:00:34.783Z,1016.51
2018-02-19T04:01:34.744Z,1016.46
2018-02-19T04:02:34.728Z,1016.46
2018-02-19T04:03:34.703Z,1016.46
2018-02-19T04:04:34.669Z,1016.46
2018-02-19T04:05:34.647Z,1016.43
2018-02-19T04:06:34.618Z,1016.43
2018-02-19T04:07:34.586Z,1016.42
2018-02-19T04:08:34.569Z,1016.42
2018-02-19T04:09:34.535Z,1016.40
2018-02-19T04:10:34.502Z,1016.33
2018-02-19T04:11:34.490Z,1016.33
2018-02-19T04:12:34.451Z,1016.33
2018-02-19T04:13:34.423Z,1016.33
2018-02-19T04:14:34.394Z,1016.35
2018-02-19T04:15:34.369Z,1016.29
2018-02-19T04:16:34.343Z,1016.31
2018-02-19T04:17:34.320Z,1016.26
2018-02-19T04:18:34.288Z,1016.25
2018-02-19T04:19:34.262Z,1016.25
2018-02-19T04:20:34.231Z,1016.24
2018-02-19T04:21:34.208Z,1016.25
2018-02-19T04:22:34.186Z,1016.24
2018-02-19T04:23:34.152Z,1016.23
2018-02-19T04:24:34.123Z,1016.22
2018-02-19T04:25:34.102Z,1016.25
2018-02-19T04:26:34.077Z,1016.21
2018-02-19T04:27:34.041Z,1016.19
2018-02-19T04:28:34.019Z,1016.22
2018-02-19T04:29:33.992Z,1016.14
2018-02-19T04:30:33.963Z,1016.15
2018-02-19T04:31:33.931Z,1016.09
2018-02-19T04:32:33.906Z,1016.06
2018-02-19T04:33:33.883Z,1016.06
2018-02-19T04:34:33.851Z,1016.03
2018-02-19T04:35:33.829Z,1016.07
2018-02-19T04:36:33.818Z,1016.09
2018-02-19T04:37:33.769Z,1016.04
2018-02-19T04:38:33.746Z,1016.05
2018-02-19T04:39:33.737Z,1016.00
2018-02-19T04:40:33.687Z,1015.98
2018-02-19T04:41:33.668Z,1016.01
2018-02-19T04:42:33.639Z,1016.00
2018-02-19T04:43:33.606Z,1016.02
2018-02-19T04:44:33.584Z,1015.99
2018-02-19T04:45:33.556Z,1016.02
2018-02-19T04:46:33.528Z,1015.99
2018-02-19T04:47:33.510Z,1015.99
2018-02-19T04:48:33.475Z,1016.01
2018-02-19T04:49:33.448Z,1016.00
2018-02-19T04:50:33.424Z,1015.98
2018-02-19T04:51:33.398Z,1016.00
2018-02-19T04:52:33.363Z,1015.98
2018-02-19T04:53:33.344Z,1016.01
2018-02-19T04:54:33.313Z,1016.03
2018-02-19T04:55:33.283Z,1016.00
2018-02-19T04:56:33.255Z,1016.00
2018-02-19T04:57:33.242Z,1015.98
2018-02-19T04:58:33.200Z,1015.97
2018-02-19T04:59:33.179Z,1015.95
2018-02-19T05:00:33.154Z,1015.93
2018-02-19T05:01:33.119Z,1015.91
2018-02-19T05:02:33.092Z,1015.89
2018-02-19T05:03:33.073Z,1015.90
2018-02-19T05:04:33.044Z,1015.88
2018-02-19T05:05:33.009Z,1015.95
2018-02-19T05:06:32.990Z,1015.92
2018-02-19T05:07:32.957Z,1016.01
2018-02-19T05:08:32.931Z,1015.96
2018-02-19T05:09:32.911Z,1016.05
2018-02-19T05:10:32.879Z,1016.01
2018-02-19T05:11:32.848Z,1016.02
2018-02-19T05:12:32.821Z,1015.97
2018-02-19T05:13:32.794Z,1015.96
2018-02-19T05:14:32.775Z,1015.92
2018-02-19T05:15:32.736Z,1015.98
2018-02-19T05:16:32.715Z,1015.94
2018-02-19T05:17:32.685Z,1015.97
2018-02-19T05:18:32.660Z,1015.95
2018-02-19T05:19:32.633Z,1015.92
2018-02-19T05:20:32.600Z,1016.00
2018-02-19T05:21:32.581Z,1015.98
2018-02-19T05:22:32.559Z,1016.00
2018-02-19T05:23:32.519Z,1015.97
2018-02-19T05:24:32.501Z,1015.97
2018-02-19T05:25:32.474Z,1016.01
2018-02-19T05:26:32.444Z,1015.99
2018-02-19T05:27:32.411Z,1016.00
2018-02-19T05:28:32.389Z,1015.98
2018-02-19T05:29:32.359Z,1015.99
2018-02-19T05:30:32.332Z,1016.00
2018-02-19T05:31:32.319Z,1015.98
2018-02-19T05:32:32.280Z,1016.00
2018-02-19T05:33:32.254Z,1016.05
2018-02-19T05:34:32.220Z,1016.07
2018-02-19T05:35:32.198Z,1016.09
2018-02-19T05:36:32.168Z,1016.10
2018-02-19T05:37:32.146Z,1016.12
2018-02-19T05:38:32.121Z,1016.11
2018-02-19T05:39:32.094Z,1016.07
2018-02-19T05:40:32.061Z,1016.12
2018-02-19T05:41:32.041Z,1016.14
2018-02-19T05:42:32.017Z,1016.13
2018-02-19T05:43:32.000Z,1016.09
2018-02-19T05:44:31.960Z,1016.07
2018-02-19T05:45:31.920Z,1016.08
2018-02-19T05:46:31.902Z,1016.03
2018-02-19T05:47:31.876Z,1016.04
2018-02-19T05:48:31.838Z,1016.00
2018-02-19T05:49:31.822Z,1016.04
2018-02-19T05:50:31.796Z,1016.04
2018-02-19T05:51:31.759Z,1016.03
2018-02-19T05:52:31.732Z,1016.00
2018-02-19T05:53:31.711Z,1016.01
2018-02-19T05:54:31.683Z,1016.00
2018-02-19T05:55:31.652Z,1015.99
2018-02-19T05:56:31.628Z,1016.00
2018-02-19T05:57:31.598Z,1016.02
2018-02-19T05:58:31.569Z,1016.06
2018-02-19T05:59:31.580Z,1016.12
2018-02-19T06:00:31.511Z,1016.15
2018-02-19T06:01:31.489Z,1016.17
2018-02-19T06:02:31.477Z,1016.14
2018-02-19T06:03:31.434Z,1016.11
2018-02-19T06:04:31.404Z,1016.09
2018-02-19T06:05:31.381Z,1016.02
2018-02-19T06:06:31.359Z,1016.04
2018-02-19T06:07:31.330Z,1016.01
2018-02-19T06:08:31.302Z,1016.02
2018-02-19T06:09:31.273Z,1015.98
2018-02-19T06:10:31.247Z,1015.99
2018-02-19T06:11:31.218Z,1016.03
2018-02-19T06:12:31.191Z,1016.01
2018-02-19T06:13:31.163Z,1016.02
2018-02-19T06:14:31.136Z,1016.03
2018-02-19T06:15:31.110Z,1016.01
2018-02-19T06:16:31.081Z,1016.04
2018-02-19T06:17:31.055Z,1016.05
2018-02-19T06:18:31.031Z,1016.06
2018-02-19T06:19:31.003Z,1016.07
2018-02-19T06:20:30.978Z,1016.07
2018-02-19T06:21:30.952Z,1016.09
2018-02-19T06:22:30.919Z,1016.12
2018-02-19T06:23:30.891Z,1016.09
2018-02-19T06:24:30.868Z,1016.11
2018-02-19T06:25:30.843Z,1016.11
2018-02-19T06:26:30.810Z,1016.12
2018-02-19T06:27:30.785Z,1016.16
2018-02-19T06:28:30.763Z,1016.18
2018-02-19T06:29:30.726Z,1016.19
2018-02-19T06:30:30.730Z,1016.21
2018-02-19T06:31:30.683Z,1016.20
2018-02-19T06:32:30.653Z,1016.20
2018-02-19T06:33:30.622Z,1016.17
2018-02-19T06:34:30.594Z,1016.18
2018-02-19T06:35:30.567Z,1016.15
2018-02-19T06:36:30.539Z,1016.15
2018-02-19T06:37:30.518Z,1016.15
2018-02-19T06:38:30.486Z,1016.10
2018-02-19T06:39:30.459Z,1016.12
2018-02-19T06:40:30.450Z,1016.13
2018-02-19T06:41:30.408Z,1016.16
2018-02-19T06:42:30.374Z,1016.17
2018-02-19T06:43:30.363Z,1016.16
2018-02-19T06:44:30.324Z,1016.19
2018-02-19T06:45:30.294Z,1016.18
2018-02-19T06:46:30.273Z,1016.17
2018-02-19T06:47:30.243Z,1016.14
2018-02-19T06:48:30.228Z,1016.09
2018-02-19T06:49:30.190Z,1016.09
2018-02-19T06:50:30.166Z,1016.09
2018-02-19T06:51:30.132Z,1016.12
2018-02-19T06:52:30.104Z,1016.09
2018-02-19T06:53:30.083Z,1016.10
2018-02-19T06:54:30.050Z,1016.12
2018-02-19T06:55:30.022Z,1016.11
2018-02-19T06:56:30.003Z,1016.11
2018-02-19T06:57:29.970Z,1016.14
2018-02-19T06:58:29.943Z,1016.15
2018-02-19T06:59:29.920Z,1016.19
2018-02-19T07:00:29.883Z,1016.18
2018-02-19T07:01:29.865Z,1016.20
2018-02-19T07:02:29.846Z,1016.17
2018-02-19T07:03:29.804Z,1016.21
2018-02-19T07:04:29.776Z,1016.18
2018-02-19T07:05:29.754Z,1016.19
2018-02-19T07:06:29.723Z,1016.11
2018-02-19T07:07:29.696Z,1016.11
2018-02-19T07:08:29.676Z,1016.09
2018-02-19T07:09:29.644Z,1016.09
2018-02-19T07:10:29.615Z,1016.04
2018-02-19T07:11:29.594Z,1016.01
2018-02-19T07:12:29.565Z,1015.99
2018-02-19T07:13:29.532Z,1016.01
2018-02-19T07:14:29.511Z,1015.99
2018-02-19T07:15:29.480Z,1015.93
2018-02-19T07:16:29.461Z,1015.92
2018-02-19T07:17:29.426Z,1015.93
2018-02-19T07:18:29.404Z,1015.90
2018-02-19T07:19:29.373Z,1015.90
2018-02-19T07:20:29.343Z,1015.93
2018-02-19T07:21:29.319Z,1015.94
2018-02-19T07:22:29.291Z,1015.93
2018-02-19T07:23:29.262Z,1015.92
2018-02-19T07:24:29.237Z,1015.89
2018-02-19T07:25:29.218Z,1015.85
2018-02-19T07:26:29.185Z,1015.85
2018-02-19T07:27:29.155Z,1015.84
2018-02-19T07:28:29.125Z,1015.83
2018-02-19T07:29:29.100Z,1015.79
2018-02-19T07:30:29.078Z,1015.82
2018-02-19T07:31:29.053Z,1015.79
2018-02-19T07:32:29.024Z,1015.78
2018-02-19T07:33:28.999Z,1015.78
2018-02-19T07:34:28.967Z,1015.76
2018-02-19T07:35:28.937Z,1015.79
2018-02-19T07:36:28.922Z,1015.80
2018-02-19T07:37:28.888Z,1015.79
2018-02-19T07:38:28.889Z,1015.77
2018-02-19T07:39:28.836Z,1015.78
2018-02-19T07:40:28.808Z,1015.79
2018-02-19T07:41:28.791Z,1015.78
2018-02-19T07:42:28.764Z,1015.80
2018-02-19T07:43:28.729Z,1015.84
2018-02-19T07:44:28.716Z,1015.89
2018-02-19T07:45:28.681Z,1015.85
2018-02-19T07:46:28.650Z,1015.87
2018-02-19T07:47:28.626Z,1015.88
2018-02-19T07:48:28.606Z,1015.90
2018-02-19T07:49:28.573Z,1015.91
2018-02-19T07:50:28.567Z,1015.92
2018-02-19T07:51:28.570Z,1015.96
2018-02-19T07:52:28.519Z,1015.96
2018-02-19T07:53:28.478Z,1015.95
2018-02-19T07:54:28.445Z,1015.97
2018-02-19T07:55:28.412Z,1015.97
2018-02-19T07:56:28.390Z,1015.97
2018-02-19T07:57:28.407Z,1015.99
2018-02-19T07:58:28.367Z,1016.01
2018-02-19T07:59:28.321Z,1016.02
2018-02-19T08:00:28.283Z,1016.01
2018-02-19T08:01:28.258Z,1016.01
2018-02-19T08:02:28.269Z,1015.95
2018-02-19T08:03:28.225Z,1015.96
2018-02-19T08:04:28.180Z,1015.96
2018-02-19T08:05:28.159Z,1015.96
2018-02-19T08:06:28.122Z,1015.93
2018-02-19T08:07:28.110Z,1015.92
2018-02-19T08:08:28.078Z,1015.91
2018-02-19T08:09:28.046Z,1015.87
2018-02-19T08:10:28.017Z,1015.88
2018-02-19T08:11:28.003Z,1015.93
2018-02-19T08:12:27.996Z,1015.93
2018-02-19T08:13:27.938Z,1015.90
2018-02-19T08:14:27.911Z,1015.95
2018-02-19T08:15:27.892Z,1015.89
2018-02-19T08:16:27.864Z,1015.87
2018-02-19T08:17:27.835Z,1015.86
2018-02-19T08:18:27.806Z,1015.83
2018-02-19T08:19:27.776Z,1015.84
2018-02-19T08:20:27.747Z,1015.82
2018-02-19T08:21:27.723Z,1015.79
2018-02-19T08:22:27.699Z,1015.79
2018-02-19T08:23:27.671Z,1015.80
2018-02-19T08:24:27.647Z,1015.83
2018-02-19T08:25:27.613Z,1015.82
2018-02-19T08:26:27.593Z,1015.78
2018-02-19T08:27:27.556Z,1015.82
2018-02-19T08:28:27.536Z,1015.78
2018-02-19T08:29:27.518Z,1015.77
2018-02-19T08:30:27.543Z,1015.76
2018-02-19T08:31:27.450Z,1015.69
2018-02-19T08:32:27.428Z,1015.66
2018-02-19T08:33:27.419Z,1015.65
2018-02-19T08:34:27.369Z,1015.62
2018-02-19T08:35:27.349Z,1015.63
2018-02-19T08:36:27.333Z,1015.60
2018-02-19T08:37:27.295Z,1015.54
2018-02-19T08:38:27.262Z,1015.55
2018-02-19T08:39:27.246Z,1015.59
2018-02-19T08:40:27.210Z,1015.55
2018-02-19T08:41:27.227Z,1015.56
2018-02-19T08:42:27.151Z,1015.51
2018-02-19T08:43:27.129Z,1015.51
2018-02-19T08:44:27.104Z,1015.46
2018-02-19T08:45:27.085Z,1015.48
2018-02-19T08:46:27.075Z,1015.51
2018-02-19T08:47:27.019Z,1015.53
2018-02-19T08:48:26.989Z,1015.54
2018-02-19T08:49:26.965Z,1015.55
2018-02-19T08:50:26.941Z,1015.58
2018-02-19T08:51:26.907Z,1015.58
2018-02-19T08:52:26.882Z,1015.57
2018-02-19T08:53:26.856Z,1015.55
2018-02-19T08:54:26.832Z,1015.58
2018-02-19T08:55:26.798Z,1015.55
2018-02-19T08:56:26.777Z,1015.51
2018-02-19T08:57:26.755Z,1015.48
2018-02-19T08:58:26.718Z,1015.47
2018-02-19T08:59:26.695Z,1015.47
2018-02-19T09:14:53.005Z,1015.51
2018-02-19T09:15:52.934Z,1015.53
2018-02-19T09:17:45.835Z,1015.55
2018-02-19T09:18:45.826Z,1015.52
2018-02-19T09:20:38.676Z,1015.56
2018-02-19T09:21:38.618Z,1015.60
2018-02-19T09:23:31.484Z,1015.61
2018-02-19T09:24:31.513Z,1015.56
2018-02-19T09:26:25.821Z,1015.60
2018-02-19T09:27:25.825Z,1015.57
2018-02-19T09:28:25.729Z,1015.57
2018-02-19T09:29:36.388Z,1015.54
2018-02-19T09:30:25.665Z,1015.57
2018-02-19T09:31:26.674Z,1015.60
2018-02-19T09:32:25.616Z,1015.56
2018-02-19T09:33:25.660Z,1015.57
2018-02-19T09:34:25.562Z,1015.60
2018-02-19T09:35:25.576Z,1015.55
2018-02-19T09:36:25.503Z,1015.54
2018-02-19T09:37:25.587Z,1015.49
2018-02-19T09:38:25.458Z,1015.49
2018-02-19T09:39:25.498Z,1015.52
2018-02-19T09:40:25.394Z,1015.53
2018-02-19T09:41:25.410Z,1015.54
2018-02-19T09:42:25.346Z,1015.52
2018-02-19T09:43:25.422Z,1015.52
2018-02-19T09:44:25.291Z,1015.50
2018-02-19T09:45:25.389Z,1015.46
2018-02-19T09:46:25.262Z,1015.51
2018-02-19T09:47:25.247Z,1015.46
2018-02-19T09:48:25.192Z,1015.48
2018-02-19T09:49:26.210Z,1015.55
2018-02-19T09:50:25.153Z,1015.42
2018-02-19T09:51:25.166Z,1015.43
2018-02-19T09:52:25.089Z,1015.41
2018-02-19T09:53:25.073Z,1015.41
2018-02-19T09:54:25.042Z,1015.38
2018-02-19T09:55:25.000Z,1015.38
2018-02-19T09:56:24.983Z,1015.40
2018-02-19T09:57:24.958Z,1015.37
2018-02-19T09:58:24.923Z,1015.39
2018-02-19T09:59:24.901Z,1015.36
2018-02-19T10:00:24.874Z,1015.38
2018-02-19T10:01:24.851Z,1015.34
2018-02-19T10:02:24.817Z,1015.33
2018-02-19T10:03:24.792Z,1015.32
2018-02-19T10:04:24.784Z,1015.35
2018-02-19T10:05:25.852Z,1015.29
2018-02-19T10:06:24.724Z,1015.29
2018-02-19T10:07:24.684Z,1015.27
2018-02-19T10:08:24.698Z,1015.24
2018-02-19T10:09:25.671Z,1015.24
2018-02-19T10:10:24.613Z,1015.24
2018-02-19T10:11:24.629Z,1015.24
2018-02-19T10:12:24.551Z,1015.25
2018-02-19T10:13:24.524Z,1015.25
2018-02-19T10:14:24.553Z,1015.25
2018-02-19T10:15:31.507Z,1015.29
2018-02-19T10:16:24.456Z,1015.26
2018-02-19T10:17:26.419Z,1015.31
2018-02-19T10:18:24.443Z,1015.29
2018-02-19T10:19:29.872Z,1015.29
2018-02-19T10:20:24.340Z,1015.31
2018-02-19T10:21:26.348Z,1015.31
2018-02-19T10:22:24.290Z,1015.29
2018-02-19T10:23:25.279Z,1015.32
2018-02-19T10:24:24.237Z,1015.33
2018-02-19T10:25:25.238Z,1015.33
2018-02-19T10:26:24.186Z,1015.32
2018-02-19T10:27:24.159Z,1015.32
2018-02-19T10:28:24.140Z,1015.28
2018-02-19T10:29:28.878Z,1015.28
2018-02-19T10:30:24.100Z,1015.23
2018-02-19T10:31:24.071Z,1015.24
2018-02-19T10:32:24.034Z,1015.27
2018-02-19T10:33:24.023Z,1015.21
2018-02-19T10:34:23.983Z,1015.24
2018-02-19T10:35:26.018Z,1015.22
2018-02-19T10:36:23.923Z,1015.21
2018-02-19T10:37:30.888Z,1015.24
2018-02-19T10:38:23.878Z,1015.20
2018-02-19T10:39:23.846Z,1015.25
2018-02-19T10:40:23.812Z,1015.25
2018-02-19T10:41:28.382Z,1015.26
2018-02-19T10:42:23.768Z,1015.25
2018-02-19T10:43:24.744Z,1015.24
2018-02-19T10:44:23.708Z,1015.24
2018-02-19T10:45:23.701Z,1015.23
2018-02-19T10:46:23.661Z,1015.23
2018-02-19T10:47:24.649Z,1015.18
2018-02-19T10:48:23.609Z,1015.15
2018-02-19T10:49:23.580Z,1015.19
2018-02-19T10:50:23.551Z,1015.17
2018-02-19T10:51:23.528Z,1015.16
2018-02-19T10:52:23.503Z,1015.14
2018-02-19T10:53:30.384Z,1015.18
2018-02-19T10:54:23.459Z,1015.17
2018-02-19T10:55:23.440Z,1015.15
2018-02-19T10:56:23.392Z,1015.14
2018-02-19T11:03:03.721Z,1015.02
2018-02-19T11:04:03.704Z,1015.00
2018-02-19T11:07:15.360Z,1014.98
2018-02-19T11:08:15.308Z,1014.98
2018-02-19T11:10:08.200Z,1014.94
2018-02-19T11:11:08.164Z,1014.94
2018-02-19T11:13:01.058Z,1014.97
2018-02-19T11:14:00.996Z,1014.97
2018-02-19T11:15:53.871Z,1014.97
2018-02-19T11:16:53.830Z,1014.97
2018-02-19T11:18:46.720Z,1014.93
2018-02-19T11:19:46.658Z,1014.90
2018-02-19T11:21:39.539Z,1014.92
2018-02-19T11:22:39.482Z,1014.95
2018-02-19T11:24:32.354Z,1014.94
2018-02-19T11:25:32.314Z,1014.92
2018-02-19T11:27:26.284Z,1014.88
2018-02-19T11:28:26.136Z,1014.92
2018-02-19T11:30:19.020Z,1014.93
2018-02-19T11:31:18.959Z,1014.91
2018-02-19T11:33:11.844Z,1014.88
2018-02-19T11:34:11.792Z,1014.85
2018-02-19T11:36:04.657Z,1014.89
2018-02-19T11:37:04.629Z,1014.86
2018-02-19T11:38:57.521Z,1014.76
2018-02-19T11:39:57.458Z,1014.75
2018-02-19T11:41:50.346Z,1014.74
2018-02-19T11:42:50.285Z,1014.73
2018-02-19T11:44:43.150Z,1014.77
2018-02-19T11:45:43.118Z,1014.72
2018-02-19T11:47:36.005Z,1014.71
2018-02-19T11:48:35.950Z,1014.71
2018-02-19T11:51:47.657Z,1014.66
2018-02-19T11:52:47.599Z,1014.62
2018-02-19T11:55:59.263Z,1014.60
2018-02-19T11:56:59.223Z,1014.59
2018-02-19T11:58:52.136Z,1014.56
2018-02-19T11:59:52.087Z,1014.57
2018-02-19T12:01:44.961Z,1014.55
2018-02-19T12:02:44.897Z,1014.58
2018-02-19T12:04:37.779Z,1014.54
2018-02-19T12:05:37.777Z,1014.47
2018-02-19T12:06:37.727Z,1014.51
2018-02-19T12:07:37.695Z,1014.48
2018-02-19T12:08:37.674Z,1014.43
2018-02-19T12:09:37.648Z,1014.44
2018-02-19T12:10:37.628Z,1014.44
2018-02-19T12:11:37.596Z,1014.43
2018-02-19T12:12:37.576Z,1014.43
2018-02-19T12:13:37.547Z,1014.43
2018-02-19T12:14:37.523Z,1014.39
2018-02-19T12:15:37.497Z,1014.43
2018-02-19T12:16:37.468Z,1014.37
2018-02-19T12:17:37.453Z,1014.35
2018-02-19T12:18:37.423Z,1014.34
2018-02-19T12:19:37.397Z,1014.32
2018-02-19T12:20:37.379Z,1014.28
2018-02-19T12:21:37.399Z,1014.30
2018-02-19T12:22:37.360Z,1014.29
2018-02-19T12:23:37.302Z,1014.27
2018-02-19T12:24:37.277Z,1014.31
2018-02-19T12:25:37.250Z,1014.25
2018-02-19T12:26:37.227Z,1014.29
2018-02-19T12:27:37.200Z,1014.29
2018-02-19T12:28:37.209Z,1014.25
2018-02-19T12:29:37.153Z,1014.22
2018-02-19T12:30:37.126Z,1014.19
2018-02-19T12:31:37.110Z,1014.20
2018-02-19T12:32:37.078Z,1014.17
2018-02-19T12:33:37.052Z,1014.19
2018-02-19T12:34:37.027Z,1014.17
2018-02-19T12:35:36.999Z,1014.18
2018-02-19T12:36:36.973Z,1014.16
2018-02-19T12:37:36.950Z,1014.20
2018-02-19T12:38:36.923Z,1014.16
2018-02-19T12:39:36.899Z,1014.14
2018-02-19T12:40:36.879Z,1014.16
2018-02-19T12:41:36.854Z,1014.16
2018-02-19T12:42:36.831Z,1014.14
2018-02-19T12:43:36.795Z,1014.16
2018-02-19T12:44:36.775Z,1014.16
2018-02-19T12:45:36.747Z,1014.12
2018-02-19T12:46:36.729Z,1014.15
2018-02-19T12:47:36.699Z,1014.15
2018-02-19T12:48:36.672Z,1014.13
2018-02-19T12:49:36.648Z,1014.10
2018-02-19T12:50:36.619Z,1014.08